createdAt,value
2022-11-19T00:01:29.043Z,66.61
2022-11-19T00:04:15.113Z,66.61
2022-11-19T00:07:01.203Z,66.52
2022-11-19T00:09:47.132Z,66.45
2022-11-19T00:12:51.472Z,66.76
2022-11-19T00:15:37.728Z,66.29
2022-11-19T00:18:23.792Z,66.40
2022-11-19T00:21:13.627Z,66.34
2022-11-19T00:23:59.864Z,66.58
2022-11-19T00:26:45.979Z,66.34
2022-11-19T00:29:31.823Z,66.42
2022-11-19T00:32:17.815Z,65.85
2022-11-19T00:35:04.703Z,66.23
2022-11-19T00:37:50.439Z,66.32
2022-11-19T00:40:36.446Z,66.44
2022-11-19T00:43:41.119Z,66.37
2022-11-19T00:46:29.979Z,66.62
2022-11-19T00:49:16.325Z,66.49
2022-11-19T00:52:02.376Z,66.25
2022-11-19T00:54:48.479Z,66.25
2022-11-19T00:57:34.455Z,66.72
2022-11-19T01:00:20.496Z,66.39
2022-11-19T01:03:06.626Z,66.40
2022-11-19T01:05:52.730Z,66.47
2022-11-19T01:08:38.891Z,66.57
2022-11-19T01:11:27.522Z,66.57
2022-11-19T01:14:13.620Z,66.34
2022-11-19T01:16:59.459Z,66.39
2022-11-19T01:19:45.196Z,66.34
2022-11-19T01:22:31.234Z,66.68
2022-11-19T01:25:17.027Z,66.74
2022-11-19T01:28:04.125Z,66.46
2022-11-19T01:30:50.002Z,66.56
2022-11-19T01:33:36.599Z,66.49
2022-11-19T01:36:25.829Z,66.78
2022-11-19T01:39:11.678Z,66.49
2022-11-19T01:41:57.543Z,66.88
2022-11-19T01:45:04.889Z,66.85
2022-11-19T01:47:52.871Z,66.78
2022-11-19T01:50:43.379Z,66.67
2022-11-19T01:53:32.056Z,66.67
2022-11-19T01:56:20.437Z,66.74
2022-11-19T01:59:09.766Z,66.57
2022-11-19T02:01:56.467Z,66.45
2022-11-19T02:04:43.195Z,66.85
2022-11-19T02:07:32.596Z,66.74
2022-11-19T02:10:18.787Z,66.73
2022-11-19T02:13:23.531Z,66.81
2022-11-19T02:16:27.414Z,67.12
2022-11-19T02:19:45.804Z,67.00
2022-11-19T02:22:34.832Z,66.78
2022-11-19T02:25:39.326Z,66.58
2022-11-19T02:28:47.009Z,66.78
2022-11-19T02:31:51.129Z,66.79
2022-11-19T02:35:17.612Z,66.82
2022-11-19T02:38:26.957Z,66.67
2022-11-19T02:41:34.102Z,67.00
2022-11-19T02:44:41.306Z,66.62
2022-11-19T02:47:35.213Z,66.57
2022-11-19T02:50:28.057Z,66.81
2022-11-19T02:53:14.224Z,66.82
2022-11-19T02:56:12.373Z,66.77
2022-11-19T02:59:17.428Z,66.67
2022-11-19T03:02:24.182Z,66.70
2022-11-19T03:05:15.095Z,66.77
2022-11-19T03:08:01.503Z,66.83
2022-11-19T03:10:56.819Z,66.85
2022-11-19T03:14:24.412Z,66.79
2022-11-19T03:17:35.521Z,66.76
2022-11-19T03:20:30.502Z,66.76
2022-11-19T03:23:21.403Z,66.47
2022-11-19T03:26:30.329Z,66.78
2022-11-19T03:29:17.616Z,66.68
2022-11-19T03:32:14.166Z,66.62
2022-11-19T03:35:05.063Z,66.60
2022-11-19T03:37:53.205Z,66.61
2022-11-19T03:40:39.136Z,66.63
2022-11-19T03:43:28.248Z,66.85
2022-11-19T03:46:16.411Z,66.62
2022-11-19T03:49:03.217Z,66.34
2022-11-19T03:51:58.280Z,66.23
2022-11-19T03:54:44.604Z,66.23
2022-11-19T03:57:30.603Z,66.12
2022-11-19T04:00:17.190Z,66.12
2022-11-19T04:03:03.307Z,66.14
2022-11-19T04:05:49.545Z,66.36
2022-11-19T04:08:35.357Z,66.16
2022-11-19T04:14:06.480Z,65.89
2022-11-19T04:16:52.327Z,66.19
2022-11-19T04:19:38.298Z,65.97
2022-11-19T04:22:24.321Z,66.26
2022-11-19T04:25:10.235Z,66.36
2022-11-19T04:27:56.139Z,66.48
2022-11-19T04:30:42.880Z,66.48
2022-11-19T04:33:28.768Z,66.30
2022-11-19T04:36:14.851Z,66.34
2022-11-19T04:39:00.759Z,66.37
2022-11-19T04:41:47.042Z,66.35
2022-11-19T04:44:33.198Z,66.50
2022-11-19T04:47:19.285Z,66.38
2022-11-19T04:50:05.713Z,66.52
2022-11-19T04:52:51.533Z,66.47
2022-11-19T04:55:37.450Z,66.46
2022-11-19T04:58:23.459Z,66.39
2022-11-19T05:01:09.348Z,66.68
2022-11-19T05:03:55.133Z,66.43
2022-11-19T05:06:41.200Z,66.58
2022-11-19T05:09:26.962Z,66.44
2022-11-19T05:12:12.890Z,66.52
2022-11-19T05:14:58.849Z,66.82
2022-11-19T05:17:45.490Z,66.50
2022-11-19T05:20:31.765Z,66.62
2022-11-19T05:23:17.491Z,66.38
2022-11-19T05:26:03.421Z,66.64
2022-11-19T05:28:49.366Z,66.66
2022-11-19T05:31:35.224Z,66.51
2022-11-19T05:34:21.304Z,66.49
2022-11-19T05:37:07.178Z,66.36
2022-11-19T05:39:53.120Z,66.38
2022-11-19T05:42:39.063Z,66.72
2022-11-19T05:45:24.919Z,66.49
2022-11-19T05:48:11.330Z,66.61
2022-11-19T05:50:57.575Z,66.73
2022-11-19T05:53:44.156Z,66.80
2022-11-19T05:56:30.282Z,66.68
2022-11-19T05:59:16.168Z,66.29
2022-11-19T06:02:01.988Z,66.39
2022-11-19T06:04:47.824Z,66.44
2022-11-19T06:07:33.686Z,66.42
2022-11-19T06:10:19.532Z,66.46
2022-11-19T06:13:05.507Z,66.29
2022-11-19T06:15:51.557Z,66.40
2022-11-19T06:18:37.727Z,66.59
2022-11-19T06:21:23.635Z,66.22
2022-11-19T06:24:09.686Z,66.38
2022-11-19T06:26:55.946Z,66.36
2022-11-19T06:29:42.966Z,66.15
2022-11-19T06:32:28.952Z,66.53
2022-11-19T06:35:14.835Z,66.35
2022-11-19T06:38:00.775Z,66.51
2022-11-19T06:40:46.800Z,66.61
2022-11-19T06:43:32.552Z,66.58
2022-11-19T06:46:18.523Z,66.55
2022-11-19T06:49:05.903Z,66.31
2022-11-19T06:51:52.209Z,66.31
2022-11-19T06:54:42.887Z,66.49
2022-11-19T06:57:29.629Z,66.43
2022-11-19T07:00:16.285Z,66.73
2022-11-19T07:03:02.433Z,66.64
2022-11-19T07:05:49.276Z,66.78
2022-11-19T07:08:36.806Z,66.83
2022-11-19T07:11:28.504Z,66.39
2022-11-19T07:14:14.501Z,66.52
2022-11-19T07:17:00.321Z,66.45
2022-11-19T07:19:46.365Z,66.53
2022-11-19T07:22:32.246Z,66.64
2022-11-19T07:25:18.135Z,66.65
2022-11-19T07:28:04.091Z,66.35
2022-11-19T07:30:50.143Z,66.23
2022-11-19T07:33:39.066Z,66.32
2022-11-19T07:36:25.157Z,66.51
2022-11-19T07:39:11.386Z,66.45
2022-11-19T07:42:16.077Z,66.51
2022-11-19T07:45:04.380Z,66.41
2022-11-19T07:47:50.192Z,66.38
2022-11-19T07:50:36.931Z,66.37
2022-11-19T07:53:23.331Z,66.25
2022-11-19T07:56:09.263Z,66.44
2022-11-19T07:58:55.151Z,66.02
2022-11-19T08:01:41.307Z,66.12
2022-11-19T08:04:30.320Z,66.12
2022-11-19T08:07:16.325Z,65.96
2022-11-19T08:10:02.267Z,65.97
2022-11-19T08:13:03.249Z,66.25
2022-11-19T08:15:49.341Z,66.19
2022-11-19T08:18:38.440Z,66.11
2022-11-19T08:21:24.481Z,66.19
2022-11-19T08:24:10.512Z,66.15
2022-11-19T08:26:56.580Z,65.80
2022-11-19T08:29:42.703Z,65.83
2022-11-19T08:32:28.587Z,65.49
2022-11-19T08:35:14.540Z,65.82
2022-11-19T08:38:01.064Z,65.83
2022-11-19T08:40:52.400Z,65.53
2022-11-19T08:43:38.817Z,65.65
2022-11-19T08:46:24.766Z,65.81
2022-11-19T08:49:12.098Z,65.70
2022-11-19T08:51:58.110Z,65.25
2022-11-19T08:54:43.936Z,65.58
2022-11-19T08:57:29.898Z,65.31
2022-11-19T09:00:16.615Z,65.56
2022-11-19T09:03:03.019Z,65.23
2022-11-19T09:05:49.268Z,65.66
2022-11-19T09:08:35.499Z,65.34
2022-11-19T09:11:22.577Z,65.58
2022-11-19T09:14:08.851Z,65.63
2022-11-19T09:16:54.810Z,65.91
2022-11-19T09:19:40.766Z,65.54
2022-11-19T09:22:26.817Z,65.26
2022-11-19T09:25:13.143Z,65.22
2022-11-19T09:27:59.780Z,65.10
2022-11-19T09:30:45.642Z,65.02
2022-11-19T09:33:33.168Z,64.92
2022-11-19T09:36:20.176Z,65.10
2022-11-19T09:39:06.031Z,64.89
2022-11-19T09:42:24.094Z,65.17
2022-11-19T09:45:34.333Z,64.98
2022-11-19T09:48:40.392Z,64.58
2022-11-19T09:51:30.031Z,64.72
2022-11-19T09:54:18.012Z,64.47
2022-11-19T09:57:07.174Z,64.47
2022-11-19T09:59:55.753Z,64.55
2022-11-19T10:02:41.955Z,64.80
2022-11-19T10:06:10.440Z,64.49
2022-11-19T10:09:20.011Z,64.38
2022-11-19T10:12:21.170Z,64.39
2022-11-19T10:15:24.443Z,64.52
2022-11-19T10:18:16.924Z,64.63
2022-11-19T10:21:23.401Z,65.11
2022-11-19T10:24:30.862Z,64.72
2022-11-19T10:27:36.759Z,64.43
2022-11-19T10:30:24.640Z,64.56
2022-11-19T10:33:26.182Z,64.59
2022-11-19T10:36:24.375Z,64.48
2022-11-19T10:39:10.393Z,64.63
2022-11-19T10:42:00.839Z,64.10
2022-11-19T10:45:04.678Z,64.49
2022-11-19T10:48:15.780Z,64.32
2022-11-19T10:51:01.944Z,64.23
2022-11-19T10:53:51.509Z,64.08
2022-11-19T10:56:43.706Z,64.13
2022-11-19T10:59:30.828Z,64.20
2022-11-19T11:02:33.016Z,64.28
2022-11-19T11:05:22.253Z,64.06
2022-11-19T11:08:11.785Z,63.92
2022-11-19T11:11:00.215Z,63.84
2022-11-19T11:14:05.239Z,63.98
2022-11-19T11:17:02.227Z,63.74
2022-11-19T11:20:04.145Z,63.77
2022-11-19T11:23:02.037Z,63.52
2022-11-19T11:26:09.437Z,63.46
2022-11-19T11:29:08.824Z,63.59
2022-11-19T11:31:54.886Z,63.56
2022-11-19T11:37:49.444Z,63.23
2022-11-19T11:40:40.239Z,63.10
2022-11-19T11:43:27.951Z,62.66
2022-11-19T11:46:14.443Z,62.68
2022-11-19T11:49:06.874Z,63.11
2022-11-19T11:52:01.943Z,62.73
2022-11-19T11:54:56.708Z,62.79
2022-11-19T11:58:03.125Z,63.01
2022-11-19T12:00:49.554Z,63.13
2022-11-19T12:03:49.441Z,62.92
2022-11-19T12:07:13.745Z,62.73
2022-11-19T12:10:18.813Z,62.69
2022-11-19T12:13:56.598Z,63.09
2022-11-19T12:17:10.339Z,62.74
2022-11-19T12:19:56.289Z,62.85
2022-11-19T12:23:18.636Z,63.09
2022-11-19T12:26:35.071Z,62.63
2022-11-19T12:29:42.830Z,62.73
2022-11-19T12:32:43.623Z,62.63
2022-11-19T12:35:49.739Z,62.61
2022-11-19T12:38:47.866Z,62.63
2022-11-19T12:41:50.220Z,62.50
2022-11-19T12:45:13.830Z,62.59
2022-11-19T12:48:28.016Z,62.60
2022-11-19T12:51:23.374Z,62.46
2022-11-19T12:54:16.918Z,62.49
2022-11-19T12:57:34.464Z,62.71
2022-11-19T13:00:23.190Z,62.35
2022-11-19T13:03:09.048Z,62.54
2022-11-19T13:05:58.410Z,62.34
2022-11-19T13:08:52.041Z,62.33
2022-11-19T13:11:48.200Z,62.21
2022-11-19T13:14:38.679Z,61.98
2022-11-19T13:17:31.509Z,62.22
2022-11-19T13:20:52.261Z,62.39
2022-11-19T13:23:41.057Z,62.26
2022-11-19T13:26:30.376Z,62.16
2022-11-19T13:29:34.354Z,62.25
2022-11-19T13:32:23.023Z,62.01
2022-11-19T13:35:14.192Z,62.17
2022-11-19T13:38:03.196Z,62.25
2022-11-19T13:41:14.224Z,61.84
2022-11-19T13:44:18.964Z,61.92
2022-11-19T13:47:12.299Z,61.58
2022-11-19T13:50:02.375Z,61.65
2022-11-19T13:53:01.366Z,61.78
2022-11-19T13:55:47.713Z,62.02
2022-11-19T13:58:35.746Z,61.80
2022-11-19T14:01:40.460Z,62.02
2022-11-19T14:04:58.064Z,62.24
2022-11-19T14:07:46.840Z,62.15
2022-11-19T14:10:57.773Z,61.88
2022-11-19T14:14:34.079Z,62.00
2022-11-19T14:17:47.099Z,61.82
2022-11-19T14:20:58.144Z,62.42
2022-11-19T14:24:06.658Z,62.14
2022-11-19T14:26:52.741Z,62.20
2022-11-19T14:29:44.653Z,61.90
2022-11-19T14:32:47.029Z,61.96
2022-11-19T14:35:36.047Z,62.19
2022-11-19T14:38:33.128Z,62.06
2022-11-19T14:41:27.588Z,61.94
2022-11-19T14:44:32.886Z,62.38
2022-11-19T14:47:28.745Z,61.98
2022-11-19T14:50:29.252Z,62.04
2022-11-19T14:53:19.096Z,62.14
2022-11-19T14:56:12.848Z,62.27
2022-11-19T14:59:23.265Z,62.00
2022-11-19T15:02:21.915Z,62.12
2022-11-19T15:05:21.730Z,62.26
2022-11-19T15:08:17.069Z,62.30
2022-11-19T15:11:11.126Z,62.07
2022-11-19T15:14:34.350Z,62.61
2022-11-19T15:17:24.652Z,62.26
2022-11-19T15:20:11.204Z,62.46
2022-11-19T15:23:08.455Z,62.51
2022-11-19T15:26:04.043Z,62.28
2022-11-19T15:29:27.540Z,62.40
2022-11-19T15:33:03.411Z,62.38
2022-11-19T15:36:20.320Z,62.47
2022-11-19T15:39:14.513Z,62.37
2022-11-19T15:42:02.955Z,62.27
2022-11-19T15:44:59.174Z,62.59
2022-11-19T15:48:01.052Z,62.47
2022-11-19T15:50:47.541Z,62.23
2022-11-19T15:53:33.879Z,62.45
2022-11-19T15:56:19.911Z,62.69
2022-11-19T15:59:09.243Z,62.44
2022-11-19T16:02:08.008Z,62.56
2022-11-19T16:04:54.177Z,62.54
2022-11-19T16:07:40.266Z,62.67
2022-11-19T16:10:31.421Z,62.66
2022-11-19T16:13:44.215Z,62.85
2022-11-19T16:16:49.008Z,62.82
2022-11-19T16:19:35.203Z,62.64
2022-11-19T16:22:21.392Z,62.59
2022-11-19T16:25:17.037Z,62.88
2022-11-19T16:28:10.232Z,62.90
2022-11-19T16:31:04.347Z,63.18
2022-11-19T16:33:54.034Z,63.03
2022-11-19T16:36:40.111Z,62.81
2022-11-19T16:39:28.002Z,62.81
2022-11-19T16:42:18.666Z,62.92
2022-11-19T16:45:14.583Z,62.71
2022-11-19T16:48:03.934Z,63.16
2022-11-19T16:50:50.150Z,63.09
2022-11-19T16:53:47.343Z,63.09
2022-11-19T16:56:41.260Z,63.31
2022-11-19T16:59:34.018Z,63.19
2022-11-19T17:02:21.911Z,63.00
2022-11-19T17:05:20.167Z,63.30
2022-11-19T17:08:19.025Z,63.35
2022-11-19T17:11:44.213Z,63.40
2022-11-19T17:14:30.340Z,63.62
2022-11-19T17:17:48.716Z,63.57
2022-11-19T17:20:34.863Z,63.64
2022-11-19T17:23:27.210Z,63.43
2022-11-19T17:26:17.751Z,63.61
2022-11-19T17:29:11.674Z,63.36
2022-11-19T17:31:57.752Z,63.40
2022-11-19T17:34:49.161Z,63.64
2022-11-19T17:37:35.396Z,63.34
2022-11-19T17:40:21.453Z,63.52
2022-11-19T17:43:33.552Z,63.89
2022-11-19T17:46:20.629Z,63.55
2022-11-19T17:49:08.952Z,63.57
2022-11-19T17:51:57.820Z,63.60
2022-11-19T17:54:46.495Z,63.64
2022-11-19T17:57:32.579Z,63.60
2022-11-19T18:00:18.994Z,63.89
2022-11-19T18:03:05.228Z,64.05
2022-11-19T18:05:51.359Z,63.83
2022-11-19T18:08:38.831Z,63.78
2022-11-19T18:11:25.831Z,64.06
2022-11-19T18:14:12.711Z,64.18
2022-11-19T18:16:58.509Z,64.15
2022-11-19T18:19:44.663Z,64.11
2022-11-19T18:22:31.010Z,63.90
2022-11-19T18:25:19.075Z,64.33
2022-11-19T18:28:05.184Z,64.49
2022-11-19T18:30:51.525Z,64.40
2022-11-19T18:33:37.407Z,64.37
2022-11-19T18:36:25.260Z,64.36
2022-11-19T18:39:11.428Z,64.40
2022-11-19T18:41:57.279Z,64.40
2022-11-19T18:44:43.691Z,64.59
2022-11-19T18:47:30.121Z,64.67
2022-11-19T18:50:16.182Z,64.36
2022-11-19T18:53:02.676Z,64.58
2022-11-19T18:55:48.774Z,64.36
2022-11-19T18:58:34.809Z,64.78
2022-11-19T19:01:21.666Z,64.73
2022-11-19T19:04:09.754Z,64.43
2022-11-19T19:06:56.050Z,64.47
2022-11-19T19:09:42.326Z,64.51
2022-11-19T19:12:28.363Z,64.84
2022-11-19T19:15:14.706Z,64.72
2022-11-19T19:18:05.017Z,64.98
2022-11-19T19:20:53.743Z,65.10
2022-11-19T19:23:40.093Z,64.69
2022-11-19T19:26:26.180Z,64.93
2022-11-19T19:29:12.797Z,64.72
2022-11-19T19:31:59.397Z,64.77
2022-11-19T19:34:45.175Z,64.79
2022-11-19T19:37:31.163Z,64.60
2022-11-19T19:40:16.961Z,64.86
2022-11-19T19:43:06.189Z,64.54
2022-11-19T19:45:52.603Z,64.58
2022-11-19T19:48:39.120Z,64.89
2022-11-19T19:51:27.435Z,64.79
2022-11-19T19:54:13.832Z,64.62
2022-11-19T19:56:59.769Z,64.87
2022-11-19T19:59:46.049Z,64.51
2022-11-19T20:02:32.036Z,64.52
2022-11-19T20:05:17.915Z,64.76
2022-11-19T20:08:03.964Z,64.27
2022-11-19T20:10:50.390Z,64.94
2022-11-19T20:13:37.100Z,64.54
2022-11-19T20:16:28.241Z,64.40
2022-11-19T20:19:15.154Z,64.43
2022-11-19T20:22:01.246Z,64.71
2022-11-19T20:24:47.075Z,64.53
2022-11-19T20:27:33.095Z,64.77
2022-11-19T20:30:19.442Z,64.68
2022-11-19T20:33:05.728Z,65.06
2022-11-19T20:35:54.913Z,64.75
2022-11-19T20:38:43.290Z,64.89
2022-11-19T20:41:47.980Z,64.61
2022-11-19T20:44:33.861Z,64.62
2022-11-19T20:47:20.046Z,64.94
2022-11-19T20:50:06.532Z,64.97
2022-11-19T20:52:52.565Z,64.95
2022-11-19T20:56:03.597Z,64.98
2022-11-19T20:58:48.039Z,64.75
2022-11-19T21:01:35.185Z,64.68
2022-11-19T21:04:22.559Z,65.26
2022-11-19T21:07:09.080Z,64.86
2022-11-19T21:09:55.260Z,65.02
2022-11-19T21:13:01.086Z,64.61
2022-11-19T21:15:47.192Z,64.86
2022-11-19T21:18:36.593Z,64.89
2022-11-19T21:21:24.421Z,64.78
2022-11-19T21:24:10.427Z,64.71
2022-11-19T21:26:56.547Z,64.97
2022-11-19T21:29:42.558Z,64.91
2022-11-19T21:32:28.382Z,65.08
2022-11-19T21:35:14.233Z,65.12
2022-11-19T21:38:00.052Z,64.97
2022-11-19T21:40:46.472Z,65.03
2022-11-19T21:43:32.910Z,65.00
2022-11-19T21:46:18.659Z,64.81
2022-11-19T21:49:05.235Z,64.79
2022-11-19T21:51:51.311Z,64.51
2022-11-19T21:54:37.355Z,64.93
2022-11-19T21:57:24.059Z,65.07
2022-11-19T22:00:10.788Z,65.07
2022-11-19T22:03:02.644Z,64.92
2022-11-19T22:06:03.821Z,65.36
2022-11-19T22:08:49.859Z,64.86
2022-11-19T22:11:35.761Z,65.02
2022-11-19T22:14:22.185Z,64.97
2022-11-19T22:17:08.387Z,64.97
2022-11-19T22:19:54.768Z,64.88
2022-11-19T22:22:45.082Z,64.93
2022-11-19T22:25:31.476Z,64.90
2022-11-19T22:28:17.450Z,64.79
2022-11-19T22:31:04.197Z,64.92
2022-11-19T22:33:52.105Z,65.20
2022-11-19T22:36:38.626Z,65.18
2022-11-19T22:39:25.847Z,64.66
2022-11-19T22:42:12.027Z,65.02
2022-11-19T22:44:58.336Z,64.87
2022-11-19T22:47:44.111Z,64.97
2022-11-19T22:50:30.042Z,65.03
2022-11-19T22:53:17.365Z,65.04
2022-11-19T22:56:04.443Z,65.16
2022-11-19T22:58:52.758Z,64.88
2022-11-19T23:01:38.923Z,65.27
2022-11-19T23:04:26.210Z,65.08
2022-11-19T23:07:11.944Z,65.16
2022-11-19T23:09:57.847Z,65.05
2022-11-19T23:13:02.321Z,65.20
2022-11-19T23:16:00.607Z,65.05
2022-11-19T23:18:51.628Z,65.28
2022-11-19T23:21:37.418Z,65.31
2022-11-19T23:24:23.334Z,65.21
2022-11-19T23:27:09.359Z,65.09
2022-11-19T23:29:55.283Z,65.41
2022-11-19T23:32:41.594Z,65.70
2022-11-19T23:35:27.474Z,65.58
2022-11-19T23:38:13.200Z,65.42
2022-11-19T23:41:03.093Z,65.31
2022-11-19T23:43:49.785Z,65.29
2022-11-19T23:46:36.777Z,65.59
2022-11-19T23:49:23.000Z,65.25
2022-11-19T23:52:09.179Z,65.53
2022-11-19T23:54:55.135Z,65.40
2022-11-19T23:57:41.174Z,65.56
